sensor_id;sensor_type;location;lat;lon;timestamp;temperature;humidity
44707;DHT22;30433;45.596;8.408;2023-05-10T00:02:40;13.50;99.90
44707;DHT22;30433;45.596;8.408;2023-05-10T00:08:42;13.60;99.90
44707;DHT22;30433;45.596;8.408;2023-05-10T00:14:45;13.40;99.90
44707;DHT22;30433;45.596;8.408;2023-05-10T00:20:47;13.40;99.90
44707;DHT22;30433;45.596;8.408;2023-05-10T00:26:49;13.30;99.90
44707;DHT22;30433;45.596;8.408;2023-05-10T00:32:53;13.30;99.90
44707;DHT22;30433;45.596;8.408;2023-05-10T00:38:54;13.30;99.90
44707;DHT22;30433;45.596;8.408;2023-05-10T00:44:56;13.20;99.90
44707;DHT22;30433;45.596;8.408;2023-05-10T00:50:59;13.10;99.90
44707;DHT22;30433;45.596;8.408;2023-05-10T00:57:02;13.30;99.90
44707;DHT22;30433;45.596;8.408;2023-05-10T01:03:04;13.10;99.90
44707;DHT22;30433;45.596;8.408;2023-05-10T01:09:07;13.10;99.90
44707;DHT22;30433;45.596;8.408;2023-05-10T01:15:09;13.00;99.90
44707;DHT22;30433;45.596;8.408;2023-05-10T01:21:16;12.90;99.90
44707;DHT22;30433;45.596;8.408;2023-05-10T01:27:27;12.90;99.90
44707;DHT22;30433;45.596;8.408;2023-05-10T01:33:37;12.80;99.90
44707;DHT22;30433;45.596;8.408;2023-05-10T01:39:42;12.80;99.90
44707;DHT22;30433;45.596;8.408;2023-05-10T01:45:47;12.70;99.90
44707;DHT22;30433;45.596;8.408;2023-05-10T01:51:53;12.60;99.90
44707;DHT22;30433;45.596;8.408;2023-05-10T01:58:01;12.60;99.90
44707;DHT22;30433;45.596;8.408;2023-05-10T02:04:04;12.60;99.90
44707;DHT22;30433;45.596;8.408;2023-05-10T02:10:09;12.50;99.90
44707;DHT22;30433;45.596;8.408;2023-05-10T02:16:11;12.50;99.90
44707;DHT22;30433;45.596;8.408;2023-05-10T02:22:14;12.50;99.90
44707;DHT22;30433;45.596;8.408;2023-05-10T02:28:18;12.50;99.90
44707;DHT22;30433;45.596;8.408;2023-05-10T02:34:21;12.40;99.90
44707;DHT22;30433;45.596;8.408;2023-05-10T02:40:23;12.40;99.90
44707;DHT22;30433;45.596;8.408;2023-05-10T02:46:26;12.30;99.90
44707;DHT22;30433;45.596;8.408;2023-05-10T02:52:29;12.30;99.90
44707;DHT22;30433;45.596;8.408;2023-05-10T02:58:32;12.40;99.90
44707;DHT22;30433;45.596;8.408;2023-05-10T03:04:35;12.30;99.90
44707;DHT22;30433;45.596;8.408;2023-05-10T03:10:39;12.30;99.90
44707;DHT22;30433;45.596;8.408;2023-05-10T03:16:42;12.20;99.90
44707;DHT22;30433;45.596;8.408;2023-05-10T03:22:49;12.20;99.90
44707;DHT22;30433;45.596;8.408;2023-05-10T03:28:52;12.30;99.90
44707;DHT22;30433;45.596;8.408;2023-05-10T03:34:55;12.20;99.90
44707;DHT22;30433;45.596;8.408;2023-05-10T03:40:58;12.10;99.90
44707;DHT22;30433;45.596;8.408;2023-05-10T03:47:00;12.00;99.90
44707;DHT22;30433;45.596;8.408;2023-05-10T03:53:01;12.00;99.90
44707;DHT22;30433;45.596;8.408;2023-05-10T03:59:05;12.00;99.90
44707;DHT22;30433;45.596;8.408;2023-05-10T04:05:08;12.00;99.90
44707;DHT22;30433;45.596;8.408;2023-05-10T04:11:11;12.00;99.90
44707;DHT22;30433;45.596;8.408;2023-05-10T04:17:14;12.00;99.90
44707;DHT22;30433;45.596;8.408;2023-05-10T04:23:16;11.90;99.90
44707;DHT22;30433;45.596;8.408;2023-05-10T04:29:18;12.20;99.90
44707;DHT22;30433;45.596;8.408;2023-05-10T04:35:21;12.30;99.90
44707;DHT22;30433;45.596;8.408;2023-05-10T04:41:23;12.30;99.90
44707;DHT22;30433;45.596;8.408;2023-05-10T04:47:25;12.30;99.90
44707;DHT22;30433;45.596;8.408;2023-05-10T04:53:28;12.30;99.90
44707;DHT22;30433;45.596;8.408;2023-05-10T04:59:30;12.30;99.90
44707;DHT22;30433;45.596;8.408;2023-05-10T05:05:32;12.20;99.90
44707;DHT22;30433;45.596;8.408;2023-05-10T05:11:35;12.30;99.90
44707;DHT22;30433;45.596;8.408;2023-05-10T05:17:37;12.30;99.90
44707;DHT22;30433;45.596;8.408;2023-05-10T05:23:39;12.20;99.90
44707;DHT22;30433;45.596;8.408;2023-05-10T05:29:42;12.30;99.90
44707;DHT22;30433;45.596;8.408;2023-05-10T05:35:44;12.50;99.90
44707;DHT22;30433;45.596;8.408;2023-05-10T05:41:50;12.40;99.90
44707;DHT22;30433;45.596;8.408;2023-05-10T05:47:54;12.50;99.90
44707;DHT22;30433;45.596;8.408;2023-05-10T05:53:56;12.50;99.90
44707;DHT22;30433;45.596;8.408;2023-05-10T05:59:58;12.60;99.90
44707;DHT22;30433;45.596;8.408;2023-05-10T06:06:01;12.70;99.90
44707;DHT22;30433;45.596;8.408;2023-05-10T06:12:03;12.60;99.90
44707;DHT22;30433;45.596;8.408;2023-05-10T06:18:05;12.60;99.90
44707;DHT22;30433;45.596;8.408;2023-05-10T06:24:08;12.80;99.90
44707;DHT22;30433;45.596;8.408;2023-05-10T06:30:10;12.80;99.90
44707;DHT22;30433;45.596;8.408;2023-05-10T06:36:13;12.70;99.90
44707;DHT22;30433;45.596;8.408;2023-05-10T06:42:16;12.60;99.90
44707;DHT22;30433;45.596;8.408;2023-05-10T06:48:18;12.90;99.90
44707;DHT22;30433;45.596;8.408;2023-05-10T06:54:20;12.80;99.90
44707;DHT22;30433;45.596;8.408;2023-05-10T07:00:24;13.00;99.90
44707;DHT22;30433;45.596;8.408;2023-05-10T07:06:27;13.10;99.90
44707;DHT22;30433;45.596;8.408;2023-05-10T07:12:31;13.10;99.90
44707;DHT22;30433;45.596;8.408;2023-05-10T07:18:34;12.90;99.90
44707;DHT22;30433;45.596;8.408;2023-05-10T07:24:36;13.10;99.90
44707;DHT22;30433;45.596;8.408;2023-05-10T07:30:38;13.00;99.90
44707;DHT22;30433;45.596;8.408;2023-05-10T07:36:41;13.20;99.90
44707;DHT22;30433;45.596;8.408;2023-05-10T07:42:43;13.30;99.90
44707;DHT22;30433;45.596;8.408;2023-05-10T07:48:45;13.30;99.90
44707;DHT22;30433;45.596;8.408;2023-05-10T07:54:48;13.40;99.90
44707;DHT22;30433;45.596;8.408;2023-05-10T08:00:50;13.40;99.90
44707;DHT22;30433;45.596;8.408;2023-05-10T08:06:52;13.10;99.90
44707;DHT22;30433;45.596;8.408;2023-05-10T08:12:55;13.50;99.90
44707;DHT22;30433;45.596;8.408;2023-05-10T08:18:58;13.50;99.90
44707;DHT22;30433;45.596;8.408;2023-05-10T08:25:00;13.60;99.90
44707;DHT22;30433;45.596;8.408;2023-05-10T08:31:03;13.60;99.90
44707;DHT22;30433;45.596;8.408;2023-05-10T08:37:05;13.60;99.90
44707;DHT22;30433;45.596;8.408;2023-05-10T08:43:08;13.70;99.90
44707;DHT22;30433;45.596;8.408;2023-05-10T08:49:11;13.80;99.90
44707;DHT22;30433;45.596;8.408;2023-05-10T08:55:14;13.80;99.90
44707;DHT22;30433;45.596;8.408;2023-05-10T09:01:16;13.80;99.90
44707;DHT22;30433;45.596;8.408;2023-05-10T09:07:21;13.90;99.90
44707;DHT22;30433;45.596;8.408;2023-05-10T09:13:23;14.00;99.90
44707;DHT22;30433;45.596;8.408;2023-05-10T09:19:25;14.00;99.90
44707;DHT22;30433;45.596;8.408;2023-05-10T09:25:28;13.80;99.90
44707;DHT22;30433;45.596;8.408;2023-05-10T09:31:43;14.00;99.90
44707;DHT22;30433;45.596;8.408;2023-05-10T09:37:45;14.20;99.90
44707;DHT22;30433;45.596;8.408;2023-05-10T09:43:49;14.20;99.90
44707;DHT22;30433;45.596;8.408;2023-05-10T09:49:52;14.50;99.90
44707;DHT22;30433;45.596;8.408;2023-05-10T09:55:56;14.40;99.90
44707;DHT22;30433;45.596;8.408;2023-05-10T10:01:59;14.40;99.90
44707;DHT22;30433;45.596;8.408;2023-05-10T10:08:04;14.60;99.90
44707;DHT22;30433;45.596;8.408;2023-05-10T10:14:06;14.90;99.90
44707;DHT22;30433;45.596;8.408;2023-05-10T10:20:10;15.30;99.90
44707;DHT22;30433;45.596;8.408;2023-05-10T10:26:11;15.30;99.90
44707;DHT22;30433;45.596;8.408;2023-05-10T10:32:18;15.30;99.90
44707;DHT22;30433;45.596;8.408;2023-05-10T10:38:23;15.30;99.90
44707;DHT22;30433;45.596;8.408;2023-05-10T10:50:45;15.10;99.90
44707;DHT22;30433;45.596;8.408;2023-05-10T10:56:52;15.20;99.90
44707;DHT22;30433;45.596;8.408;2023-05-10T11:03:12;15.60;99.90
44707;DHT22;30433;45.596;8.408;2023-05-10T11:09:17;15.80;99.90
44707;DHT22;30433;45.596;8.408;2023-05-10T11:15:29;15.80;99.90
44707;DHT22;30433;45.596;8.408;2023-05-10T11:21:32;15.50;99.90
44707;DHT22;30433;45.596;8.408;2023-05-10T11:27:36;15.40;99.90
44707;DHT22;30433;45.596;8.408;2023-05-10T11:33:43;15.50;99.90
44707;DHT22;30433;45.596;8.408;2023-05-10T11:39:46;15.80;99.90
44707;DHT22;30433;45.596;8.408;2023-05-10T11:45:48;15.80;99.90
44707;DHT22;30433;45.596;8.408;2023-05-10T11:51:51;16.40;99.90
44707;DHT22;30433;45.596;8.408;2023-05-10T11:57:53;16.30;99.90
44707;DHT22;30433;45.596;8.408;2023-05-10T12:03:55;16.40;99.90
44707;DHT22;30433;45.596;8.408;2023-05-10T12:10:09;15.90;99.90
44707;DHT22;30433;45.596;8.408;2023-05-10T12:16:12;15.80;99.90
44707;DHT22;30433;45.596;8.408;2023-05-10T12:22:14;15.80;99.90
44707;DHT22;30433;45.596;8.408;2023-05-10T12:28:18;15.90;99.90
44707;DHT22;30433;45.596;8.408;2023-05-10T12:34:24;15.80;99.90
44707;DHT22;30433;45.596;8.408;2023-05-10T12:40:26;15.60;99.90
44707;DHT22;30433;45.596;8.408;2023-05-10T12:46:29;15.80;99.90
44707;DHT22;30433;45.596;8.408;2023-05-10T12:52:31;16.00;99.90
44707;DHT22;30433;45.596;8.408;2023-05-10T12:58:33;16.00;99.90
44707;DHT22;30433;45.596;8.408;2023-05-10T13:04:37;16.00;99.90
44707;DHT22;30433;45.596;8.408;2023-05-10T13:10:40;15.80;99.90
44707;DHT22;30433;45.596;8.408;2023-05-10T13:16:41;16.00;99.90
44707;DHT22;30433;45.596;8.408;2023-05-10T13:22:45;15.70;99.90
44707;DHT22;30433;45.596;8.408;2023-05-10T13:28:47;15.90;99.90
44707;DHT22;30433;45.596;8.408;2023-05-10T13:34:49;16.00;99.90
44707;DHT22;30433;45.596;8.408;2023-05-10T13:40:52;16.00;99.90
44707;DHT22;30433;45.596;8.408;2023-05-10T13:46:54;15.90;99.90
44707;DHT22;30433;45.596;8.408;2023-05-10T13:52:56;16.00;99.90
44707;DHT22;30433;45.596;8.408;2023-05-10T13:58:59;16.00;99.90
44707;DHT22;30433;45.596;8.408;2023-05-10T14:05:01;16.10;99.90
44707;DHT22;30433;45.596;8.408;2023-05-10T14:11:03;16.10;99.90
44707;DHT22;30433;45.596;8.408;2023-05-10T14:17:06;16.20;99.90
44707;DHT22;30433;45.596;8.408;2023-05-10T14:23:08;16.10;99.90
44707;DHT22;30433;45.596;8.408;2023-05-10T14:29:10;16.20;99.90
44707;DHT22;30433;45.596;8.408;2023-05-10T14:35:13;16.30;99.90
44707;DHT22;30433;45.596;8.408;2023-05-10T14:41:15;16.60;99.90
44707;DHT22;30433;45.596;8.408;2023-05-10T14:47:17;16.90;99.90
44707;DHT22;30433;45.596;8.408;2023-05-10T14:53:21;16.90;99.90
44707;DHT22;30433;45.596;8.408;2023-05-10T14:59:23;16.80;99.90
44707;DHT22;30433;45.596;8.408;2023-05-10T15:05:24;16.90;99.90
44707;DHT22;30433;45.596;8.408;2023-05-10T15:11:28;17.00;99.90
44707;DHT22;30433;45.596;8.408;2023-05-10T15:17:30;17.00;99.90
44707;DHT22;30433;45.596;8.408;2023-05-10T15:23:32;17.20;99.90
44707;DHT22;30433;45.596;8.408;2023-05-10T15:29:35;17.00;99.90
44707;DHT22;30433;45.596;8.408;2023-05-10T15:35:37;16.50;99.90
44707;DHT22;30433;45.596;8.408;2023-05-10T15:41:39;16.70;99.90
44707;DHT22;30433;45.596;8.408;2023-05-10T15:47:43;16.60;99.90
44707;DHT22;30433;45.596;8.408;2023-05-10T15:53:45;16.70;99.90
44707;DHT22;30433;45.596;8.408;2023-05-10T15:59:46;16.80;99.90
44707;DHT22;30433;45.596;8.408;2023-05-10T16:05:50;16.70;99.90
44707;DHT22;30433;45.596;8.408;2023-05-10T16:11:51;16.80;99.90
44707;DHT22;30433;45.596;8.408;2023-05-10T16:17:53;16.80;99.90
44707;DHT22;30433;45.596;8.408;2023-05-10T16:23:57;17.00;99.90
44707;DHT22;30433;45.596;8.408;2023-05-10T16:29:59;16.80;99.90
44707;DHT22;30433;45.596;8.408;2023-05-10T16:36:01;16.60;99.90
44707;DHT22;30433;45.596;8.408;2023-05-10T16:42:06;16.40;99.90
44707;DHT22;30433;45.596;8.408;2023-05-10T16:48:08;16.30;99.90
44707;DHT22;30433;45.596;8.408;2023-05-10T16:54:10;16.30;99.90
44707;DHT22;30433;45.596;8.408;2023-05-10T17:00:14;16.30;99.90
44707;DHT22;30433;45.596;8.408;2023-05-10T17:06:16;16.30;99.90
44707;DHT22;30433;45.596;8.408;2023-05-10T17:12:18;16.10;99.90
44707;DHT22;30433;45.596;8.408;2023-05-10T17:18:21;16.10;99.90
44707;DHT22;30433;45.596;8.408;2023-05-10T17:24:23;15.90;99.90
44707;DHT22;30433;45.596;8.408;2023-05-10T17:30:26;15.70;99.90
44707;DHT22;30433;45.596;8.408;2023-05-10T17:36:33;15.50;99.90
44707;DHT22;30433;45.596;8.408;2023-05-10T17:42:35;15.40;99.90
44707;DHT22;30433;45.596;8.408;2023-05-10T17:48:37;15.40;99.90
44707;DHT22;30433;45.596;8.408;2023-05-10T17:54:40;15.50;99.90
44707;DHT22;30433;45.596;8.408;2023-05-10T18:00:42;15.30;99.90
44707;DHT22;30433;45.596;8.408;2023-05-10T18:06:44;15.20;99.90
44707;DHT22;30433;45.596;8.408;2023-05-10T18:12:47;15.20;99.90
44707;DHT22;30433;45.596;8.408;2023-05-10T18:18:49;15.00;99.90
44707;DHT22;30433;45.596;8.408;2023-05-10T18:24:51;14.90;99.90
44707;DHT22;30433;45.596;8.408;2023-05-10T18:30:55;14.80;99.90
44707;DHT22;30433;45.596;8.408;2023-05-10T18:36:57;14.80;99.90
44707;DHT22;30433;45.596;8.408;2023-05-10T18:42:58;14.80;99.90
44707;DHT22;30433;45.596;8.408;2023-05-10T18:49:02;14.90;99.90
44707;DHT22;30433;45.596;8.408;2023-05-10T18:55:05;15.00;99.90
44707;DHT22;30433;45.596;8.408;2023-05-10T19:01:08;14.90;99.90
44707;DHT22;30433;45.596;8.408;2023-05-10T19:07:11;14.80;99.90
44707;DHT22;30433;45.596;8.408;2023-05-10T19:13:13;14.70;99.90
44707;DHT22;30433;45.596;8.408;2023-05-10T19:19:15;14.70;99.90
44707;DHT22;30433;45.596;8.408;2023-05-10T19:25:19;14.60;99.90
44707;DHT22;30433;45.596;8.408;2023-05-10T19:31:21;14.40;99.90
44707;DHT22;30433;45.596;8.408;2023-05-10T19:37:23;14.50;99.90
44707;DHT22;30433;45.596;8.408;2023-05-10T19:43:27;14.60;99.90
44707;DHT22;30433;45.596;8.408;2023-05-10T19:49:29;14.60;99.90
44707;DHT22;30433;45.596;8.408;2023-05-10T19:55:31;14.40;99.90
44707;DHT22;30433;45.596;8.408;2023-05-10T20:01:37;14.50;99.90
44707;DHT22;30433;45.596;8.408;2023-05-10T20:07:41;14.40;99.90
44707;DHT22;30433;45.596;8.408;2023-05-10T20:13:43;14.30;99.90
44707;DHT22;30433;45.596;8.408;2023-05-10T20:19:49;14.20;99.90
44707;DHT22;30433;45.596;8.408;2023-05-10T20:25:50;14.20;99.90
44707;DHT22;30433;45.596;8.408;2023-05-10T20:31:53;13.70;99.90
44707;DHT22;30433;45.596;8.408;2023-05-10T20:37:56;13.40;99.90
44707;DHT22;30433;45.596;8.408;2023-05-10T20:43:59;13.50;99.90
44707;DHT22;30433;45.596;8.408;2023-05-10T20:50:01;13.60;99.90
44707;DHT22;30433;45.596;8.408;2023-05-10T20:56:04;13.90;99.90
44707;DHT22;30433;45.596;8.408;2023-05-10T21:02:06;14.00;99.90
44707;DHT22;30433;45.596;8.408;2023-05-10T21:08:08;13.90;99.90
44707;DHT22;30433;45.596;8.408;2023-05-10T21:14:11;13.90;99.90
44707;DHT22;30433;45.596;8.408;2023-05-10T21:20:13;14.00;99.90
44707;DHT22;30433;45.596;8.408;2023-05-10T21:26:15;13.90;99.90
44707;DHT22;30433;45.596;8.408;2023-05-10T21:32:18;13.90;99.90
44707;DHT22;30433;45.596;8.408;2023-05-10T21:38:20;13.80;99.90
44707;DHT22;30433;45.596;8.408;2023-05-10T21:44:22;13.70;99.90
44707;DHT22;30433;45.596;8.408;2023-05-10T21:50:25;13.50;99.90
44707;DHT22;30433;45.596;8.408;2023-05-10T21:56:27;13.50;99.90
44707;DHT22;30433;45.596;8.408;2023-05-10T22:02:29;13.20;99.90
44707;DHT22;30433;45.596;8.408;2023-05-10T22:08:32;12.80;99.90
44707;DHT22;30433;45.596;8.408;2023-05-10T22:14:34;13.20;99.90
44707;DHT22;30433;45.596;8.408;2023-05-10T22:20:36;13.20;99.90
44707;DHT22;30433;45.596;8.408;2023-05-10T22:26:40;13.30;99.90
44707;DHT22;30433;45.596;8.408;2023-05-10T22:32:42;13.00;99.90
44707;DHT22;30433;45.596;8.408;2023-05-10T22:38:43;12.70;99.90
44707;DHT22;30433;45.596;8.408;2023-05-10T22:44:47;12.60;99.90
44707;DHT22;30433;45.596;8.408;2023-05-10T22:50:49;12.70;99.90
44707;DHT22;30433;45.596;8.408;2023-05-10T22:56:51;12.80;99.90
44707;DHT22;30433;45.596;8.408;2023-05-10T23:02:54;12.80;99.90
44707;DHT22;30433;45.596;8.408;2023-05-10T23:08:56;12.80;99.90
44707;DHT22;30433;45.596;8.408;2023-05-10T23:14:58;12.60;99.90
44707;DHT22;30433;45.596;8.408;2023-05-10T23:21:01;12.70;99.90
44707;DHT22;30433;45.596;8.408;2023-05-10T23:27:03;12.70;99.90
44707;DHT22;30433;45.596;8.408;2023-05-10T23:33:08;12.90;99.90
44707;DHT22;30433;45.596;8.408;2023-05-10T23:39:11;12.70;99.90
44707;DHT22;30433;45.596;8.408;2023-05-10T23:45:13;12.60;99.90
44707;DHT22;30433;45.596;8.408;2023-05-10T23:51:15;12.70;99.90
44707;DHT22;30433;45.596;8.408;2023-05-10T23:57:18;12.70;99.90
